Time;durP1;ratioP1;P1;durP2;ratioP2;P2;SDS_P1;SDS_P2;PMS_P1;PMS_P2;Temp;Humidity;BMP_temperature;BMP_pressure;BME280_temperature;BME280_humidity;BME280_pressure;Samples;Min_cycle;Max_cycle;Signal;HPM_P1;HPM_P2
2021/08/28 00:02:09;;;;;;;0.53;0.43;;;19.60;73.10;;;;;;10445244;28;20200;-64
2021/08/28 00:07:33;;;;;;;1.50;0.53;;;19.60;72.90;;;;;;10490279;28;20195;-64
2021/08/28 00:12:55;;;;;;;0.63;0.60;;;19.60;72.60;;;;;;10462071;28;20591;-64
2021/08/28 00:18:17;;;;;;;0.40;0.40;;;19.60;72.90;;;;;;10450092;28;20224;-63
2021/08/28 00:23:41;;;;;;;0.60;0.50;;;19.60;73.30;;;;;;10493817;28;20905;-63
2021/08/28 00:29:04;;;;;;;0.47;0.47;;;19.70;72.40;;;;;;10459003;28;20615;-64
2021/08/28 00:34:26;;;;;;;0.57;0.43;;;19.60;72.70;;;;;;10439608;28;20227;-63
2021/08/28 00:39:49;;;;;;;0.67;0.40;;;19.60;73.20;;;;;;10493514;28;20223;-64
2021/08/28 00:45:12;;;;;;;0.90;0.50;;;19.60;73.00;;;;;;10481559;28;20273;-63
2021/08/28 00:50:36;;;;;;;0.57;0.43;;;19.70;72.80;;;;;;10461987;28;20197;-63
2021/08/28 00:55:59;;;;;;;0.40;0.40;;;19.60;73.10;;;;;;10458951;28;20216;-63
2021/08/28 01:01:24;;;;;;;0.40;0.40;;;19.60;73.50;;;;;;10420632;28;20581;-63
2021/08/28 01:06:51;;;;;;;0.40;0.40;;;19.60;72.30;;;;;;10488490;28;20220;-64
2021/08/28 01:12:19;;;;;;;0.57;0.53;;;19.60;72.80;;;;;;10472928;28;20221;-64
2021/08/28 01:17:46;;;;;;;0.60;0.60;;;19.60;73.20;;;;;;10456640;28;20224;-64
2021/08/28 01:23:08;;;;;;;1.00;0.50;;;19.60;72.90;;;;;;10497001;28;20215;-63
2021/08/28 01:28:38;;;;;;;1.07;0.33;;;19.60;72.60;;;;;;10494982;28;20552;-63
2021/08/28 01:34:02;;;;;;;0.70;0.60;;;19.60;73.10;;;;;;10458475;28;20217;-64
2021/08/28 01:39:25;;;;;;;0.50;0.50;;;19.60;73.30;;;;;;10494457;28;20220;-64
2021/08/28 01:44:49;;;;;;;0.43;0.43;;;19.60;72.30;;;;;;10489312;28;20212;-64
2021/08/28 01:50:17;;;;;;;0.60;0.37;;;19.60;72.80;;;;;;10498461;28;20197;-65
2021/08/28 01:55:41;;;;;;;0.77;0.60;;;19.50;73.20;;;;;;10446665;28;20213;-64
2021/08/28 02:01:04;;;;;;;1.43;0.60;;;19.60;73.60;;;;;;10446946;28;20213;-63
2021/08/28 02:06:38;;;;;;;0.40;0.40;;;19.60;72.70;;;;;;10455155;28;20584;-63
2021/08/28 02:12:04;;;;;;;0.60;0.50;;;19.60;73.10;;;;;;10454427;28;20181;-65
2021/08/28 02:17:29;;;;;;;0.50;0.50;;;19.50;73.30;;;;;;10497460;22;20232;-63
2021/08/28 02:22:56;;;;;;;0.50;0.50;;;19.60;72.30;;;;;;10485732;28;20196;-62
2021/08/28 02:28:24;;;;;;;1.00;0.40;;;19.60;72.80;;;;;;10451859;28;20192;-63
2021/08/28 02:33:48;;;;;;;0.83;0.60;;;19.50;73.30;;;;;;10451893;28;20726;-63
2021/08/28 02:39:15;;;;;;;0.80;0.43;;;19.50;73.10;;;;;;10452703;28;20296;-63
2021/08/28 02:44:40;;;;;;;0.50;0.50;;;19.60;72.60;;;;;;10450996;28;20220;-63
2021/08/28 02:50:02;;;;;;;0.40;0.33;;;19.60;73.10;;;;;;10445778;28;20220;-62
2021/08/28 02:55:28;;;;;;;0.43;0.43;;;19.50;73.30;;;;;;10426430;28;20221;-61
2021/08/28 03:00:51;;;;;;;0.80;0.60;;;19.50;72.50;;;;;;10427265;28;20585;-62
2021/08/28 03:06:14;;;;;;;0.50;0.40;;;19.50;73.50;;;;;;10426112;28;20221;-64
2021/08/28 03:11:37;;;;;;;0.77;0.50;;;19.50;73.30;;;;;;10450584;28;20197;-64
2021/08/28 03:17:01;;;;;;;0.50;0.50;;;19.50;73.30;;;;;;10450985;28;20224;-63
2021/08/28 03:22:24;;;;;;;0.50;0.50;;;19.50;72.60;;;;;;10449574;28;20193;-62
2021/08/28 03:27:48;;;;;;;0.60;0.53;;;19.50;73.10;;;;;;10449528;28;20708;-64
2021/08/28 03:33:13;;;;;;;0.30;0.30;;;19.50;73.50;;;;;;10449745;28;20278;-62
2021/08/28 03:38:36;;;;;;;0.57;0.50;;;19.50;72.80;;;;;;10450545;28;20305;-63
2021/08/28 03:43:59;;;;;;;0.60;0.60;;;19.60;72.90;;;;;;10451124;28;20212;-64
2021/08/28 03:49:21;;;;;;;0.90;0.57;;;19.50;73.30;;;;;;10449043;28;20668;-63
2021/08/28 03:54:44;;;;;;;1.13;0.50;;;19.50;73.40;;;;;;10422808;28;20216;-63
2021/08/28 04:00:09;;;;;;;0.47;0.40;;;19.50;72.50;;;;;;10439545;28;20231;-63
2021/08/28 04:05:31;;;;;;;0.50;0.50;;;19.50;73.00;;;;;;10459510;28;20225;-63
2021/08/28 04:10:53;;;;;;;0.50;0.40;;;19.50;73.40;;;;;;10458661;28;20197;-63
2021/08/28 04:16:17;;;;;;;1.00;0.60;;;19.50;73.20;;;;;;10449698;28;20322;-63
2021/08/28 04:21:39;;;;;;;0.73;0.60;;;19.50;72.80;;;;;;10457785;28;20291;-63
2021/08/28 04:27:03;;;;;;;0.40;0.40;;;19.50;73.20;;;;;;10457578;28;20625;-64
2021/08/28 04:32:27;;;;;;;0.60;0.50;;;19.50;73.60;;;;;;10456383;28;20571;-63
2021/08/28 04:37:49;;;;;;;0.50;0.40;;;19.50;72.60;;;;;;10457679;28;20244;-62
2021/08/28 04:43:11;;;;;;;0.50;0.50;;;19.50;73.10;;;;;;10457147;28;20200;-62
2021/08/28 04:48:35;;;;;;;0.57;0.40;;;19.50;73.40;;;;;;10456119;28;20200;-64
2021/08/28 04:53:58;;;;;;;0.47;0.47;;;19.50;72.80;;;;;;10455639;28;20216;-63
2021/08/28 04:59:20;;;;;;;0.60;0.60;;;19.60;72.60;;;;;;10448233;28;20213;-62
2021/08/28 05:04:43;;;;;;;0.50;0.50;;;19.60;72.80;;;;;;10456313;28;20209;-64
2021/08/28 05:10:06;;;;;;;0.63;0.50;;;19.60;72.90;;;;;;10454883;28;20653;-63
2021/08/28 05:15:29;;;;;;;0.40;0.37;;;19.60;71.80;;;;;;10444012;28;20226;-62
2021/08/28 05:20:52;;;;;;;0.50;0.50;;;19.60;72.60;;;;;;10438952;28;20214;-63
2021/08/28 05:26:14;;;;;;;0.37;0.37;;;19.60;72.80;;;;;;10440307;28;20622;-63
2021/08/28 05:31:36;;;;;;;0.67;0.53;;;19.60;72.60;;;;;;10437551;28;20378;-63
2021/08/28 05:37:00;;;;;;;0.40;0.40;;;19.60;72.20;;;;;;10438752;28;20296;-62
2021/08/28 05:42:22;;;;;;;0.50;0.47;;;19.70;72.70;;;;;;10439875;28;20213;-63
2021/08/28 05:47:44;;;;;;;0.53;0.47;;;19.60;73.00;;;;;;10437760;28;20209;-63
2021/08/28 05:53:07;;;;;;;0.70;0.60;;;19.70;72.20;;;;;;10438952;28;20200;-63
2021/08/28 05:58:30;;;;;;;0.87;0.67;;;19.60;72.50;;;;;;10435526;28;20213;-63
2021/08/28 06:03:52;;;;;;;0.87;0.47;;;19.60;73.10;;;;;;10436248;28;20213;-64
2021/08/28 06:09:15;;;;;;;0.60;0.40;;;19.60;72.90;;;;;;10434202;28;20197;-63
2021/08/28 06:14:37;;;;;;;0.50;0.50;;;19.60;72.40;;;;;;10433413;28;20224;-62
2021/08/28 06:19:59;;;;;;;0.43;0.40;;;19.60;72.90;;;;;;10440700;28;20278;-63
2021/08/28 06:25:23;;;;;;;0.40;0.40;;;19.60;73.10;;;;;;10452567;28;20219;-63
2021/08/28 06:30:45;;;;;;;0.40;0.33;;;19.60;72.10;;;;;;10447166;28;20196;-63
2021/08/28 06:36:07;;;;;;;0.30;0.30;;;19.60;72.40;;;;;;10447697;28;20587;-64
2021/08/28 06:41:30;;;;;;;0.43;0.40;;;19.60;72.90;;;;;;10451157;28;20216;-62
2021/08/28 06:46:52;;;;;;;2.00;0.50;;;19.60;73.10;;;;;;10453300;28;20220;-64
2021/08/28 06:52:15;;;;;;;0.50;0.40;;;19.60;72.20;;;;;;10449275;28;20192;-64
2021/08/28 06:57:38;;;;;;;0.70;0.50;;;19.70;72.80;;;;;;10452504;28;20217;-63
2021/08/28 07:03:00;;;;;;;0.57;0.57;;;19.60;73.00;;;;;;10451981;28;20197;-64
2021/08/28 07:08:22;;;;;;;0.60;0.60;;;19.60;72.60;;;;;;10449634;28;20422;-63
2021/08/28 07:13:46;;;;;;;0.97;0.70;;;20.10;71.10;;;;;;10450938;28;20221;-64
2021/08/28 07:19:08;;;;;;;0.50;0.50;;;19.80;71.90;;;;;;10450615;28;20205;-64
2021/08/28 07:24:30;;;;;;;0.60;0.50;;;19.70;72.60;;;;;;10451111;28;20235;-62
2021/08/28 07:29:54;;;;;;;0.70;0.40;;;19.70;71.60;;;;;;10444294;28;20204;-63
2021/08/28 07:35:16;;;;;;;0.60;0.40;;;19.70;72.30;;;;;;10450457;28;20238;-63
2021/08/28 07:40:38;;;;;;;0.40;0.40;;;19.60;72.70;;;;;;10450378;28;20223;-63
2021/08/28 07:46:02;;;;;;;0.60;0.43;;;19.60;72.90;;;;;;10449610;28;20212;-64
2021/08/28 07:51:24;;;;;;;2.93;0.77;;;19.70;72.10;;;;;;10448810;28;20435;-63
2021/08/28 07:56:46;;;;;;;1.33;0.60;;;20.00;72.20;;;;;;10439712;28;20979;-63
2021/08/28 08:02:09;;;;;;;1.83;0.50;;;19.80;72.70;;;;;;10443333;28;20208;-63
2021/08/28 08:07:32;;;;;;;2.33;0.80;;;19.80;71.60;;;;;;10447517;28;20561;-61
2021/08/28 08:12:54;;;;;;;2.05;0.75;;;20.20;69.10;;;;;;10446409;28;20420;-64
2021/08/28 08:18:17;;;;;;;2.73;0.73;;;20.40;67.90;;;;;;10447814;28;20205;-63
2021/08/28 08:23:39;;;;;;;3.90;0.80;;;20.20;68.90;;;;;;10447218;28;20596;-64
2021/08/28 08:29:01;;;;;;;5.60;1.30;;;20.00;69.40;;;;;;10445665;28;20193;-65
2021/08/28 08:34:25;;;;;;;17.43;1.90;;;19.90;69.40;;;;;;10445165;28;20217;-66
2021/08/28 08:39:47;;;;;;;5.00;1.20;;;19.90;70.50;;;;;;10445635;28;20217;-67
2021/08/28 08:45:10;;;;;;;11.90;2.30;;;19.90;70.90;;;;;;10453932;28;20597;-64
2021/08/28 08:50:34;;;;;;;5.10;1.60;;;19.90;70.70;;;;;;10435523;28;20603;-65
2021/08/28 08:55:57;;;;;;;8.13;1.93;;;19.90;70.10;;;;;;10448677;28;20221;-67
2021/08/28 09:01:19;;;;;;;21.63;2.83;;;19.90;70.00;;;;;;10420182;28;20635;-64
2021/08/28 09:33:12;;;;;;;11.63;2.77;;;19.50;72.90;;;;;;10594196;27;20553;-64
2021/08/28 09:38:39;;;;;;;9.60;2.50;;;19.80;72.90;;;;;;10510546;22;20727;-64
2021/08/28 09:44:05;;;;;;;7.83;2.70;;;19.70;73.80;;;;;;10479663;28;20317;-64
2021/08/28 09:49:30;;;;;;;9.80;2.50;;;19.60;74.30;;;;;;10477575;28;20553;-63
2021/08/28 09:54:54;;;;;;;11.77;2.77;;;19.60;74.80;;;;;;10481371;28;20732;-64
2021/08/28 10:00:17;;;;;;;8.03;3.13;;;19.50;74.90;;;;;;10498290;28;20220;-64
2021/08/28 10:05:45;;;;;;;6.93;2.27;;;19.50;75.00;;;;;;10485544;28;20667;-63
2021/08/28 10:11:07;;;;;;;8.33;2.80;;;19.50;75.10;;;;;;10489885;28;20203;-61
2021/08/28 10:16:30;;;;;;;7.83;2.87;;;19.50;75.10;;;;;;10480587;28;20700;-64
2021/08/28 10:21:54;;;;;;;6.10;2.67;;;19.40;75.70;;;;;;10500499;28;20208;-65
2021/08/28 10:27:16;;;;;;;8.55;3.00;;;19.50;75.30;;;;;;10510224;28;20422;-66
2021/08/28 10:32:39;;;;;;;6.93;2.83;;;19.90;73.70;;;;;;10461462;28;20576;-65
2021/08/28 10:38:03;;;;;;;7.33;2.57;;;19.70;74.40;;;;;;10448760;28;20233;-65
2021/08/28 10:43:26;;;;;;;5.67;2.63;;;19.60;74.70;;;;;;10455865;28;20200;-65
2021/08/28 10:48:54;;;;;;;6.77;2.77;;;19.50;74.90;;;;;;10455302;28;20744;-66
2021/08/28 10:54:23;;;;;;;4.80;2.80;;;19.50;75.40;;;;;;10455326;28;20190;-65
2021/08/28 10:59:46;;;;;;;5.10;2.60;;;19.40;75.50;;;;;;10456077;28;20597;-66
2021/08/28 11:05:15;;;;;;;4.73;2.40;;;19.40;75.50;;;;;;10455109;28;20217;-66
2021/08/28 11:10:39;;;;;;;5.17;2.77;;;19.40;75.50;;;;;;10455981;28;20189;-66
2021/08/28 11:16:01;;;;;;;4.07;2.03;;;19.40;75.60;;;;;;10451578;28;20703;-66
2021/08/28 11:21:23;;;;;;;4.33;2.80;;;19.40;75.50;;;;;;10454813;28;20225;-65
2021/08/28 11:26:52;;;;;;;3.53;2.30;;;19.40;75.50;;;;;;10455032;28;20217;-65
2021/08/28 11:32:17;;;;;;;3.03;2.33;;;19.40;75.50;;;;;;10452715;28;20192;-66
2021/08/28 11:37:41;;;;;;;3.70;2.30;;;19.40;75.50;;;;;;10454328;28;20221;-65
2021/08/28 11:43:05;;;;;;;3.47;2.57;;;19.40;75.50;;;;;;10452911;28;20212;-63
2021/08/28 11:48:27;;;;;;;4.27;2.27;;;19.40;75.70;;;;;;10453432;28;20213;-65
2021/08/28 11:53:52;;;;;;;4.70;2.57;;;19.40;76.10;;;;;;10449630;28;20205;-64
2021/08/28 11:59:17;;;;;;;3.50;2.67;;;19.40;76.10;;;;;;10419832;28;20212;-62
2021/08/28 12:04:39;;;;;;;3.57;2.37;;;19.40;75.80;;;;;;10463589;28;20220;-64
2021/08/28 12:10:04;;;;;;;2.73;2.20;;;19.40;75.70;;;;;;10417851;28;20201;-64
2021/08/28 12:15:29;;;;;;;3.30;2.20;;;19.40;75.70;;;;;;10453954;28;20258;-64
2021/08/28 12:20:51;;;;;;;3.50;2.20;;;19.40;75.70;;;;;;10453469;28;20216;-65
2021/08/28 12:26:15;;;;;;;4.27;2.50;;;19.40;75.80;;;;;;10452783;28;20221;-64
2021/08/28 12:31:38;;;;;;;2.90;2.30;;;19.40;75.90;;;;;;10448166;28;20192;-65
2021/08/28 12:37:03;;;;;;;2.47;2.13;;;19.40;76.00;;;;;;10450321;28;20232;-64
2021/08/28 12:42:29;;;;;;;3.07;2.17;;;19.40;76.10;;;;;;10448050;28;20231;-63
2021/08/28 12:47:53;;;;;;;2.53;2.00;;;19.40;76.10;;;;;;10451571;28;20225;-65
2021/08/28 12:53:15;;;;;;;4.40;2.40;;;19.40;76.20;;;;;;10450885;28;20200;-65
2021/08/28 12:58:37;;;;;;;2.33;1.97;;;19.40;76.50;;;;;;10448931;28;20715;-66
2021/08/28 13:04:01;;;;;;;2.30;2.10;;;19.40;76.30;;;;;;10437091;28;20215;-64
2021/08/28 13:09:28;;;;;;;3.07;2.03;;;19.40;76.30;;;;;;10445666;28;20189;-64
2021/08/28 13:14:52;;;;;;;2.77;2.23;;;19.40;76.30;;;;;;10450184;28;20212;-65
2021/08/28 13:20:16;;;;;;;3.27;1.90;;;19.40;76.40;;;;;;10450277;28;20221;-65
2021/08/28 13:25:41;;;;;;;2.23;1.93;;;19.40;76.50;;;;;;10420194;28;20228;-66
2021/08/28 13:31:17;;;;;;;4.23;2.10;;;19.40;76.50;;;;;;10450294;28;20193;-66
2021/08/28 13:36:40;;;;;;;3.13;2.20;;;19.40;76.40;;;;;;10450281;28;20255;-65
2021/08/28 13:42:03;;;;;;;2.10;1.90;;;19.40;76.50;;;;;;10449233;28;20706;-66
2021/08/28 13:47:25;;;;;;;2.77;2.10;;;19.30;76.50;;;;;;10449870;28;20221;-65
2021/08/28 13:52:50;;;;;;;3.73;1.83;;;19.40;76.60;;;;;;10450643;28;20276;-66
2021/08/28 13:58:12;;;;;;;1.80;1.57;;;19.40;76.70;;;;;;10449998;28;20228;-66
2021/08/28 14:03:34;;;;;;;2.87;1.83;;;19.40;76.80;;;;;;10450245;28;20217;-66
2021/08/28 14:08:57;;;;;;;3.60;1.75;;;19.40;76.90;;;;;;10455296;28;20412;-67
2021/08/28 14:14:19;;;;;;;1.67;1.40;;;19.60;76.50;;;;;;10458405;28;20217;-67
2021/08/28 14:19:42;;;;;;;1.53;1.30;;;19.50;75.40;;;;;;10457669;28;20209;-62
2021/08/28 14:25:06;;;;;;;3.80;1.60;;;19.50;74.40;;;;;;10456118;28;20232;-62
2021/08/28 14:30:28;;;;;;;1.30;1.20;;;19.50;73.20;;;;;;10456161;28;20185;-60
2021/08/28 14:35:50;;;;;;;2.07;1.30;;;19.60;72.30;;;;;;10455179;28;20703;-62
2021/08/28 14:41:13;;;;;;;2.80;1.20;;;19.60;71.60;;;;;;10453822;28;20585;-64
2021/08/28 14:46:36;;;;;;;1.37;1.23;;;19.60;70.90;;;;;;10468801;28;20231;-63
2021/08/28 14:51:58;;;;;;;1.47;1.37;;;19.70;70.30;;;;;;10477584;28;20185;-63
2021/08/28 14:57:21;;;;;;;1.07;1.00;;;19.70;69.80;;;;;;10445828;28;20218;-62
2021/08/28 15:02:43;;;;;;;1.13;1.00;;;19.70;69.40;;;;;;10451655;28;20225;-63
2021/08/28 15:08:06;;;;;;;1.53;1.10;;;19.70;69.00;;;;;;10450814;28;20600;-62
2021/08/28 15:13:29;;;;;;;2.03;1.00;;;19.70;68.60;;;;;;10449073;28;20190;-63
2021/08/28 15:18:51;;;;;;;1.10;1.00;;;19.70;68.40;;;;;;10454777;28;20225;-63
2021/08/28 15:24:13;;;;;;;1.73;1.00;;;19.70;69.90;;;;;;10454897;28;20704;-62
2021/08/28 15:29:37;;;;;;;1.13;1.03;;;19.60;70.00;;;;;;10426811;28;21055;-63
2021/08/28 15:34:59;;;;;;;1.87;1.10;;;19.60;69.40;;;;;;10452953;28;20645;-70
2021/08/28 15:40:21;;;;;;;2.08;1.00;;;19.70;68.80;;;;;;10450329;28;20440;-60
2021/08/28 15:45:45;;;;;;;1.70;0.90;;;20.20;67.30;;;;;;10452601;28;20213;-60
2021/08/28 15:51:07;;;;;;;0.70;0.67;;;20.00;68.30;;;;;;10454064;28;20193;-50
2021/08/28 15:56:30;;;;;;;3.23;1.40;;;19.80;68.70;;;;;;10446665;28;20235;-48
2021/08/28 16:01:53;;;;;;;1.33;0.90;;;19.80;68.90;;;;;;10452838;28;20350;-49
2021/08/28 16:07:15;;;;;;;1.33;0.80;;;19.80;69.00;;;;;;10453883;28;20224;-49
2021/08/28 16:12:38;;;;;;;1.60;0.60;;;19.80;69.10;;;;;;10453111;28;20200;-51
2021/08/28 16:18:03;;;;;;;1.00;0.50;;;19.80;69.20;;;;;;10469301;28;20224;-51
2021/08/28 16:23:25;;;;;;;0.90;0.73;;;19.70;69.00;;;;;;10458209;28;20576;-48
2021/08/28 16:28:47;;;;;;;0.97;0.70;;;19.80;69.10;;;;;;10466175;28;20217;-60
2021/08/28 16:34:10;;;;;;;1.23;0.80;;;19.70;69.00;;;;;;10451483;28;20673;-58
2021/08/28 16:39:32;;;;;;;2.33;0.77;;;19.80;69.00;;;;;;10449347;28;20430;-60
2021/08/28 16:44:54;;;;;;;0.70;0.60;;;19.80;68.90;;;;;;10449222;28;20217;-53
2021/08/28 16:50:18;;;;;;;1.23;0.60;;;19.80;68.50;;;;;;10450958;28;20216;-53
2021/08/28 16:55:40;;;;;;;1.13;0.57;;;19.80;67.90;;;;;;10450893;28;20228;-50
2021/08/28 17:01:02;;;;;;;0.70;0.70;;;19.80;67.60;;;;;;10445650;28;20221;-63
2021/08/28 17:06:26;;;;;;;1.00;0.60;;;19.70;68.80;;;;;;10458008;23;20796;-68
2021/08/28 17:11:48;;;;;;;0.87;0.80;;;19.70;69.10;;;;;;10393846;28;20197;-66
2021/08/28 17:17:10;;;;;;;2.43;0.53;;;19.70;68.40;;;;;;10421790;28;20639;-67
2021/08/28 17:22:33;;;;;;;0.70;0.70;;;19.70;68.00;;;;;;10447728;28;20249;-66
2021/08/28 17:27:56;;;;;;;0.60;0.60;;;19.70;69.20;;;;;;10449321;28;20220;-67
2021/08/28 17:33:18;;;;;;;0.63;0.53;;;19.70;69.10;;;;;;10447527;28;20554;-66
2021/08/28 17:38:42;;;;;;;1.53;0.70;;;19.70;68.30;;;;;;10448985;28;20224;-67
2021/08/28 17:44:05;;;;;;;0.43;0.43;;;19.70;68.50;;;;;;10457128;28;20223;-67
2021/08/28 17:49:27;;;;;;;0.80;0.60;;;19.60;69.20;;;;;;10458156;28;20220;-67
2021/08/28 17:54:50;;;;;;;0.80;0.60;;;19.60;69.40;;;;;;10458620;28;20205;-67
2021/08/28 18:00:14;;;;;;;0.63;0.63;;;19.70;68.10;;;;;;10456619;28;20716;-67
2021/08/28 18:05:36;;;;;;;0.53;0.53;;;19.60;69.20;;;;;;10457849;28;20243;-67
2021/08/28 18:10:59;;;;;;;0.60;0.60;;;19.60;69.20;;;;;;10458401;28;20692;-65
2021/08/28 18:16:21;;;;;;;0.57;0.57;;;19.60;68.30;;;;;;10457515;28;20724;-66
2021/08/28 18:21:43;;;;;;;0.97;0.47;;;19.70;68.70;;;;;;10457189;28;20220;-67
2021/08/28 18:27:07;;;;;;;0.57;0.57;;;19.60;69.30;;;;;;10455975;28;20212;-67
2021/08/28 18:32:29;;;;;;;0.87;0.60;;;19.60;68.70;;;;;;10450585;28;20601;-66
2021/08/28 18:37:51;;;;;;;1.07;0.60;;;19.70;67.90;;;;;;10449578;28;20220;-68
2021/08/28 18:43:15;;;;;;;0.50;0.50;;;19.70;67.50;;;;;;10445910;28;20229;-67
2021/08/28 18:48:37;;;;;;;1.63;0.50;;;19.60;68.60;;;;;;10445131;28;20309;-68
2021/08/28 18:54:00;;;;;;;0.70;0.63;;;19.60;68.70;;;;;;10447793;28;20197;-68
2021/08/28 18:59:23;;;;;;;0.63;0.50;;;19.70;68.10;;;;;;10447822;28;20217;-67
2021/08/28 19:04:45;;;;;;;0.53;0.50;;;19.60;68.90;;;;;;10448764;28;20219;-67
2021/08/28 19:10:08;;;;;;;0.57;0.53;;;19.60;69.20;;;;;;10444886;28;20240;-66
2021/08/28 19:15:31;;;;;;;1.03;0.50;;;19.60;68.40;;;;;;10439593;28;20197;-68
2021/08/28 19:20:54;;;;;;;0.50;0.50;;;19.60;69.30;;;;;;10446401;28;20219;-68
2021/08/28 19:26:16;;;;;;;0.60;0.50;;;19.60;69.30;;;;;;10448635;28;20216;-67
2021/08/28 19:31:40;;;;;;;0.80;0.60;;;19.60;68.40;;;;;;10442643;28;20908;-67
2021/08/28 19:37:02;;;;;;;1.30;0.60;;;19.70;67.50;;;;;;10448756;28;20220;-67
2021/08/28 19:42:24;;;;;;;0.47;0.47;;;19.70;68.60;;;;;;10450985;28;20217;-67
2021/08/28 19:47:47;;;;;;;0.40;0.40;;;19.60;68.80;;;;;;10453134;28;20231;-67
2021/08/28 19:53:09;;;;;;;0.60;0.60;;;19.70;68.10;;;;;;10450959;28;20189;-66
2021/08/28 19:58:31;;;;;;;0.30;0.30;;;19.60;68.50;;;;;;10449421;28;20217;-66
2021/08/28 20:03:55;;;;;;;0.73;0.43;;;19.60;69.20;;;;;;10449758;28;20213;-67
2021/08/28 20:09:17;;;;;;;0.70;0.60;;;19.70;68.60;;;;;;10447506;28;20422;-67
2021/08/28 20:14:39;;;;;;;0.60;0.40;;;19.70;67.70;;;;;;10447452;28;20237;-67
2021/08/28 20:20:04;;;;;;;0.60;0.60;;;19.70;68.60;;;;;;10451092;28;20593;-67
2021/08/28 20:25:27;;;;;;;0.60;0.60;;;19.60;68.80;;;;;;10449865;28;20573;-66
2021/08/28 20:30:49;;;;;;;0.60;0.57;;;19.70;68.10;;;;;;10450366;28;20193;-66
2021/08/28 20:36:12;;;;;;;0.50;0.50;;;19.70;67.50;;;;;;10451238;28;20213;-66
2021/08/28 20:41:34;;;;;;;0.63;0.60;;;19.60;68.60;;;;;;10452209;28;20224;-66
2021/08/28 20:46:57;;;;;;;0.80;0.50;;;19.60;68.70;;;;;;10427561;28;20233;-66
2021/08/28 20:52:21;;;;;;;0.93;0.53;;;19.70;68.70;;;;;;10440890;28;20286;-66
2021/08/28 20:57:43;;;;;;;0.60;0.60;;;19.60;69.50;;;;;;10439265;28;20224;-66
2021/08/28 21:03:05;;;;;;;0.50;0.47;;;19.70;69.00;;;;;;10434110;28;20631;-65
2021/08/28 21:08:28;;;;;;;0.80;0.60;;;19.60;69.10;;;;;;10451266;28;20240;-67
2021/08/28 21:13:51;;;;;;;1.37;0.60;;;19.60;69.70;;;;;;10449061;28;20204;-66
2021/08/28 21:19:14;;;;;;;0.53;0.50;;;19.60;68.80;;;;;;10438905;28;20213;-66
2021/08/28 21:24:37;;;;;;;0.50;0.50;;;19.60;69.00;;;;;;10410334;28;20225;-67
2021/08/28 21:29:59;;;;;;;0.60;0.53;;;19.60;69.60;;;;;;10428790;28;20217;-65
2021/08/28 21:35:21;;;;;;;0.60;0.50;;;19.60;68.80;;;;;;10406169;28;20416;-66
2021/08/28 21:40:45;;;;;;;0.47;0.47;;;19.70;68.00;;;;;;10408109;28;20229;-66
2021/08/28 21:46:07;;;;;;;2.33;0.60;;;19.60;67.80;;;;;;10440347;28;20713;-67
2021/08/28 21:51:29;;;;;;;0.53;0.47;;;19.60;68.80;;;;;;10450546;28;20581;-66
2021/08/28 21:56:53;;;;;;;0.50;0.50;;;19.60;68.80;;;;;;10473192;28;20216;-68
2021/08/28 22:02:15;;;;;;;0.50;0.50;;;19.60;68.80;;;;;;10451594;28;20236;-67
2021/08/28 22:07:37;;;;;;;0.50;0.50;;;19.60;69.60;;;;;;10430164;28;20233;-66
2021/08/28 22:13:00;;;;;;;0.87;0.53;;;19.60;68.90;;;;;;10465751;28;20664;-67
2021/08/28 22:18:22;;;;;;;0.50;0.50;;;19.60;68.40;;;;;;10490253;28;20223;-68
2021/08/28 22:23:45;;;;;;;0.50;0.50;;;19.60;69.30;;;;;;10462828;28;20228;-66
2021/08/28 22:29:08;;;;;;;0.60;0.60;;;19.60;69.20;;;;;;10454242;28;20643;-71
2021/08/28 22:34:30;;;;;;;0.60;0.60;;;19.60;68.20;;;;;;10456546;28;20260;-66
2021/08/28 22:39:52;;;;;;;0.70;0.60;;;19.60;69.30;;;;;;10455530;28;20279;-67
2021/08/28 22:45:16;;;;;;;0.47;0.47;;;19.60;69.40;;;;;;10456297;28;20562;-67
2021/08/28 22:50:38;;;;;;;0.53;0.50;;;19.60;68.40;;;;;;10456528;28;20212;-66
2021/08/28 22:56:00;;;;;;;0.53;0.50;;;19.60;68.80;;;;;;10454970;28;20227;-67
2021/08/28 23:01:23;;;;;;;1.23;0.70;;;19.60;69.40;;;;;;10448544;28;20221;-66
2021/08/28 23:06:46;;;;;;;0.50;0.50;;;19.60;68.70;;;;;;10480675;23;20220;-64
2021/08/28 23:12:08;;;;;;;0.53;0.53;;;19.60;67.90;;;;;;10426124;28;20201;-63
2021/08/28 23:17:32;;;;;;;0.53;0.53;;;19.60;68.70;;;;;;10414124;28;20213;-63
2021/08/28 23:22:54;;;;;;;0.57;0.50;;;19.60;69.20;;;;;;10416982;28;20216;-65
2021/08/28 23:28:16;;;;;;;0.60;0.60;;;19.60;69.00;;;;;;10455918;28;20230;-63
2021/08/28 23:33:40;;;;;;;0.53;0.50;;;19.60;69.20;;;;;;10455784;28;20580;-62
2021/08/28 23:39:03;;;;;;;0.47;0.47;;;19.50;69.40;;;;;;10452409;28;20213;-62
2021/08/28 23:44:26;;;;;;;0.50;0.50;;;19.60;68.50;;;;;;10454684;28;20209;-63
2021/08/28 23:49:49;;;;;;;0.50;0.50;;;19.60;68.10;;;;;;10453527;28;20220;-64
2021/08/28 23:55:12;;;;;;;0.50;0.50;;;19.60;69.00;;;;;;10452871;28;20268;-63
